FR-0310 weather

Valloire Bonnenuit Airport
Valloire, Rhône Alpes, France

Public forecast

Using degrees Celsius for public forecast. Weather courtesy of forecast.io.

METAR (pilot weather report)

Closest report is Chambéry-Savoie Airport, 38.5 nm (71.3 km) NW. Retrieved 2019/09/19 17:30 UTC (14 minutes ago):

LFLB 191730Z AUTO 36011KT CAVOK 19/08 Q1020 NOSIG

TAF (pilot weather forecast)

Closest forecast is Chambéry-Savoie Airport, 38.5 nm (71.3 km) NW. Retrieved 2019/09/19 12:00 UTC (6 hours ago):

TAF LFLB 191100Z 1912/2012 36012KT CAVOK